createdAt,value
2022-08-04T00:02:25.719Z,95.10
2022-08-04T00:06:38.359Z,95.10
2022-08-04T00:10:45.292Z,95.20
2022-08-04T00:14:50.780Z,95.70
2022-08-04T00:19:05.914Z,96.20
2022-08-04T00:23:09.329Z,95.70
2022-08-04T00:27:12.820Z,95.90
2022-08-04T00:31:16.119Z,96.20
2022-08-04T00:35:18.559Z,96.20
2022-08-04T00:39:21.771Z,96.10
2022-08-04T00:43:29.461Z,96.50
2022-08-04T00:47:31.338Z,96.70
2022-08-04T00:51:36.387Z,96.90
2022-08-04T00:56:13.511Z,96.90
2022-08-04T01:00:16.494Z,96.90
2022-08-04T01:04:49.381Z,96.70
2022-08-04T01:09:22.025Z,96.80
2022-08-04T01:13:51.271Z,97.10
2022-08-04T01:18:02.072Z,97.40
2022-08-04T01:22:09.754Z,97.30
2022-08-04T01:26:43.592Z,98.30
2022-08-04T01:31:02.367Z,98.50
2022-08-04T01:35:07.798Z,97.70
2022-08-04T01:39:29.007Z,98.10
2022-08-04T01:43:33.100Z,98.50
2022-08-04T01:47:36.738Z,97.60
2022-08-04T01:51:40.353Z,98.50
2022-08-04T01:55:55.032Z,98.70
2022-08-04T02:00:00.238Z,98.30
2022-08-04T02:04:20.161Z,98.20
2022-08-04T02:08:58.363Z,98.20
2022-08-04T02:13:28.817Z,98.40
2022-08-04T02:17:59.622Z,98.20
2022-08-04T02:22:10.179Z,97.70
2022-08-04T02:26:22.202Z,99.40
2022-08-04T02:30:33.813Z,98.90
2022-08-04T02:34:54.285Z,99.60
2022-08-04T02:39:00.272Z,99.20
2022-08-04T02:43:06.526Z,99.20
2022-08-04T02:47:10.073Z,99.20
2022-08-04T02:51:14.628Z,99.50
2022-08-04T02:55:18.679Z,99.70
2022-08-04T02:59:25.851Z,99.90
2022-08-04T03:03:51.679Z,99.90
2022-08-04T03:08:21.207Z,99.80
2022-08-04T03:12:47.203Z,99.90
2022-08-04T03:17:10.296Z,99.90
2022-08-04T03:21:43.195Z,99.90
2022-08-04T03:25:57.764Z,99.90
2022-08-04T03:30:26.916Z,99.90
2022-08-04T03:34:59.366Z,99.90
2022-08-04T03:39:26.189Z,99.90
2022-08-04T03:43:56.838Z,99.90
2022-08-04T03:48:37.723Z,99.90
2022-08-04T03:53:09.843Z,99.90
2022-08-04T03:57:30.665Z,99.90
2022-08-04T04:02:01.951Z,99.90
2022-08-04T04:06:23.847Z,99.90
2022-08-04T04:10:57.499Z,99.90
2022-08-04T04:15:49.803Z,99.90
2022-08-04T04:20:01.119Z,99.90
2022-08-04T04:24:17.001Z,99.90
2022-08-04T04:29:03.194Z,99.90
2022-08-04T04:33:39.108Z,99.90
2022-08-04T04:37:48.085Z,99.90
2022-08-04T04:42:13.252Z,99.90
2022-08-04T04:46:31.254Z,99.90
2022-08-04T04:51:10.177Z,99.90
2022-08-04T04:55:35.288Z,99.90
2022-08-04T04:59:52.208Z,99.90
2022-08-04T05:04:15.513Z,99.90
2022-08-04T05:08:44.964Z,99.90
2022-08-04T05:14:37.277Z,99.90
2022-08-04T05:17:40.222Z,99.90
2022-08-04T05:21:59.697Z,99.90
2022-08-04T05:26:11.762Z,99.90
2022-08-04T05:30:14.289Z,99.90
2022-08-04T05:34:37.359Z,99.90
2022-08-04T05:38:41.932Z,99.90
2022-08-04T05:42:44.421Z,99.90
2022-08-04T05:46:54.346Z,99.90
2022-08-04T05:51:01.037Z,99.90
2022-08-04T05:55:04.856Z,99.90
2022-08-04T05:59:07.217Z,99.90
2022-08-04T06:03:10.687Z,99.90
2022-08-04T06:07:14.405Z,99.90
2022-08-04T06:11:17.508Z,99.90
2022-08-04T06:15:21.380Z,99.90
2022-08-04T06:19:59.643Z,99.50
2022-08-04T06:23:57.666Z,99.30
2022-08-04T06:28:06.652Z,98.20
2022-08-04T06:32:34.708Z,98.20
2022-08-04T06:36:41.155Z,97.60
2022-08-04T06:40:43.669Z,96.20
2022-08-04T06:44:49.931Z,94.90
2022-08-04T06:48:54.508Z,94.70
2022-08-04T06:52:56.412Z,93.40
2022-08-04T06:56:59.217Z,92.50
2022-08-04T07:01:03.619Z,92.30
2022-08-04T07:05:08.185Z,91.60
2022-08-04T07:09:10.825Z,90.00
2022-08-04T07:13:13.248Z,88.70
2022-08-04T07:17:17.158Z,87.70
2022-08-04T07:21:23.416Z,86.50
2022-08-04T07:25:57.141Z,86.00
2022-08-04T07:29:48.726Z,85.10
2022-08-04T07:34:16.416Z,82.80
2022-08-04T07:38:13.316Z,84.00
2022-08-04T07:42:21.606Z,83.50
2022-08-04T07:46:24.483Z,82.90
2022-08-04T07:50:27.232Z,81.80
2022-08-04T07:54:29.729Z,79.60
2022-08-04T07:58:31.732Z,79.70
2022-08-04T08:02:35.192Z,79.00
2022-08-04T08:06:43.212Z,73.90
2022-08-04T08:10:49.145Z,67.70
2022-08-04T08:14:51.641Z,63.50
2022-08-04T08:18:53.559Z,58.40
2022-08-04T08:22:56.032Z,53.80
2022-08-04T08:27:00.306Z,52.80
2022-08-04T08:31:02.614Z,51.50
2022-08-04T08:35:09.526Z,51.60
2022-08-04T08:39:25.930Z,51.10
2022-08-04T08:44:03.884Z,50.50
2022-08-04T08:48:15.945Z,49.20
2022-08-04T08:53:00.969Z,47.60
2022-08-04T08:57:05.229Z,45.20
2022-08-04T09:01:21.197Z,45.10
2022-08-04T09:05:38.009Z,45.90
2022-08-04T09:09:54.937Z,45.70
2022-08-04T09:14:05.532Z,43.00
2022-08-04T09:18:25.573Z,42.80
2022-08-04T09:22:43.979Z,43.40
2022-08-04T09:27:01.869Z,42.10
2022-08-04T09:31:13.026Z,39.80
2022-08-04T09:35:36.255Z,39.30
2022-08-04T09:40:14.619Z,38.20
2022-08-04T09:44:51.447Z,37.20
2022-08-04T09:49:02.528Z,37.90
2022-08-04T09:53:20.879Z,37.20
2022-08-04T09:57:36.774Z,37.30
2022-08-04T10:01:39.918Z,36.20
2022-08-04T10:06:25.481Z,36.60
2022-08-04T10:10:39.193Z,36.90
2022-08-04T10:15:03.535Z,36.30
2022-08-04T10:19:12.768Z,37.30
2022-08-04T10:23:55.931Z,36.70
2022-08-04T10:28:06.646Z,34.90
2022-08-04T10:32:27.152Z,37.40
2022-08-04T10:36:37.038Z,35.20
2022-08-04T10:41:10.929Z,35.60
2022-08-04T10:45:17.111Z,34.80
2022-08-04T10:49:23.186Z,35.70
2022-08-04T10:53:26.848Z,35.80
2022-08-04T10:57:52.208Z,35.60
2022-08-04T11:02:03.603Z,35.20
2022-08-04T11:06:06.546Z,35.80
2022-08-04T11:10:09.829Z,35.40
2022-08-04T11:14:21.254Z,35.50
2022-08-04T11:18:50.960Z,35.60
2022-08-04T11:23:09.998Z,36.30
2022-08-04T11:27:39.359Z,37.70
2022-08-04T11:31:46.214Z,36.10
2022-08-04T11:36:07.621Z,36.50
2022-08-04T11:40:23.007Z,35.80
2022-08-04T11:44:37.113Z,36.10
2022-08-04T11:48:52.566Z,34.70
2022-08-04T11:52:57.076Z,36.80
2022-08-04T11:56:59.179Z,36.30
2022-08-04T12:01:36.108Z,38.60
2022-08-04T12:06:07.311Z,37.00
2022-08-04T12:10:41.061Z,35.90
2022-08-04T12:14:51.847Z,37.20
2022-08-04T12:18:59.112Z,36.60
2022-08-04T12:23:06.189Z,38.00
2022-08-04T12:27:12.381Z,37.40
2022-08-04T12:31:20.696Z,38.60
2022-08-04T12:35:39.015Z,38.80
2022-08-04T12:40:28.718Z,38.90
2022-08-04T12:44:37.523Z,40.30
2022-08-04T12:48:44.956Z,39.80
2022-08-04T12:53:03.481Z,40.50
2022-08-04T12:57:07.746Z,41.00
2022-08-04T13:02:08.436Z,40.80
2022-08-04T13:05:43.060Z,41.90
2022-08-04T13:09:46.409Z,40.90
2022-08-04T13:14:10.957Z,41.30
2022-08-04T13:18:17.521Z,42.60
2022-08-04T13:22:27.651Z,42.50
2022-08-04T13:26:42.685Z,42.90
2022-08-04T13:30:59.697Z,41.70
2022-08-04T13:35:13.050Z,41.90
2022-08-04T13:39:19.065Z,42.70
2022-08-04T13:44:15.888Z,43.30
2022-08-04T13:48:15.670Z,42.90
2022-08-04T13:52:26.319Z,43.50
2022-08-04T13:56:36.413Z,43.50
2022-08-04T14:00:45.271Z,43.80
2022-08-04T14:04:56.934Z,43.90
2022-08-04T14:09:16.072Z,45.00
2022-08-04T14:13:41.880Z,46.00
2022-08-04T14:17:44.177Z,45.30
2022-08-04T14:21:46.149Z,44.00
2022-08-04T14:25:48.051Z,44.90
2022-08-04T14:29:50.068Z,44.50
2022-08-04T14:34:02.537Z,45.50
2022-08-04T14:38:08.079Z,46.10
2022-08-04T14:42:10.466Z,45.30
2022-08-04T14:46:13.154Z,46.80
2022-08-04T14:50:15.167Z,45.90
2022-08-04T14:54:18.693Z,45.60
2022-08-04T14:58:38.893Z,46.20
2022-08-04T15:02:43.262Z,46.30
2022-08-04T15:06:47.503Z,46.20
2022-08-04T15:10:49.697Z,45.40
2022-08-04T15:14:51.944Z,45.80
2022-08-04T15:18:57.015Z,45.50
2022-08-04T15:22:59.625Z,45.80
2022-08-04T15:27:03.969Z,46.60
2022-08-04T15:32:01.724Z,45.10
2022-08-04T15:35:34.919Z,45.50
2022-08-04T15:39:55.850Z,47.60
2022-08-04T15:44:22.412Z,47.00
2022-08-04T15:48:29.178Z,46.10
2022-08-04T15:53:00.689Z,46.20
2022-08-04T15:57:11.914Z,45.70
2022-08-04T16:01:15.725Z,46.20
2022-08-04T16:05:30.041Z,46.00
2022-08-04T16:09:45.712Z,47.10
2022-08-04T16:14:08.959Z,47.10
2022-08-04T16:18:25.690Z,48.30
2022-08-04T16:22:34.548Z,48.30
2022-08-04T16:26:45.757Z,48.90
2022-08-04T16:30:48.775Z,48.40
2022-08-04T16:34:56.992Z,48.40
2022-08-04T16:39:04.667Z,49.10
2022-08-04T16:43:08.058Z,55.30
2022-08-04T16:47:22.251Z,56.10
2022-08-04T16:51:31.805Z,55.40
2022-08-04T16:55:33.843Z,56.40
2022-08-04T16:59:36.576Z,57.90
2022-08-04T17:03:40.315Z,57.80
2022-08-04T17:08:19.813Z,58.30
2022-08-04T17:12:18.104Z,59.20
2022-08-04T17:16:23.859Z,59.50
2022-08-04T17:21:00.857Z,60.90
2022-08-04T17:24:51.389Z,60.90
2022-08-04T17:28:57.884Z,61.50
2022-08-04T17:32:59.857Z,62.70
2022-08-04T17:37:36.776Z,62.40
2022-08-04T17:41:30.459Z,62.20
2022-08-04T17:46:35.861Z,62.60
2022-08-04T17:50:43.133Z,63.50
2022-08-04T17:54:45.811Z,63.80
2022-08-04T17:59:09.893Z,62.80
2022-08-04T18:03:30.024Z,63.60
2022-08-04T18:08:34.807Z,63.10
2022-08-04T18:12:02.482Z,65.70
2022-08-04T18:16:05.864Z,66.70
2022-08-04T18:20:18.891Z,65.20
2022-08-04T18:24:34.189Z,68.40
2022-08-04T18:28:38.172Z,68.70
2022-08-04T18:33:04.421Z,70.10
2022-08-04T18:37:02.389Z,70.00
2022-08-04T18:41:24.291Z,70.60
2022-08-04T18:45:33.848Z,70.00
2022-08-04T18:51:00.985Z,71.50
2022-08-04T18:53:59.415Z,72.30
2022-08-04T18:58:06.011Z,73.10
2022-08-04T19:02:15.798Z,73.10
2022-08-04T19:06:27.925Z,71.90
2022-08-04T19:10:29.900Z,73.60
2022-08-04T19:14:33.662Z,74.50
2022-08-04T19:18:36.501Z,74.50
2022-08-04T19:24:28.101Z,76.50
2022-08-04T19:27:02.401Z,77.10
2022-08-04T19:31:10.447Z,77.80
2022-08-04T19:35:12.411Z,78.20
2022-08-04T19:39:15.000Z,79.10
2022-08-04T19:43:20.007Z,79.50
2022-08-04T19:48:17.599Z,80.30
2022-08-04T19:51:46.176Z,80.60
2022-08-04T19:55:49.995Z,81.90
2022-08-04T19:59:52.124Z,82.20
2022-08-04T20:04:09.383Z,82.00
2022-08-04T20:08:13.135Z,83.10
2022-08-04T20:12:17.290Z,84.10
2022-08-04T20:16:28.429Z,84.60
2022-08-04T20:20:32.507Z,83.50
2022-08-04T20:24:38.132Z,84.60
2022-08-04T20:28:45.838Z,83.40
2022-08-04T20:32:54.423Z,84.00
2022-08-04T20:36:56.968Z,84.60
2022-08-04T20:41:00.279Z,84.20
2022-08-04T20:45:04.224Z,83.30
2022-08-04T20:49:06.738Z,83.00
2022-08-04T20:57:47.396Z,84.10
2022-08-04T21:01:53.554Z,84.30
2022-08-04T21:05:56.831Z,85.50
2022-08-04T21:09:58.722Z,85.90
2022-08-04T21:14:01.949Z,86.60
2022-08-04T21:18:06.056Z,87.00
2022-08-04T21:22:10.340Z,87.00
2022-08-04T21:26:22.773Z,87.10
2022-08-04T21:30:27.972Z,86.80
2022-08-04T21:34:37.933Z,87.00
2022-08-04T21:38:41.707Z,86.60
2022-08-04T21:42:50.183Z,88.00
2022-08-04T21:46:55.514Z,89.40
2022-08-04T21:50:57.685Z,89.60
2022-08-04T21:54:59.693Z,88.70
2022-08-04T21:59:08.770Z,87.90
2022-08-04T22:03:51.587Z,88.60
2022-08-04T22:07:50.952Z,88.10
2022-08-04T22:11:53.784Z,89.30
2022-08-04T22:16:03.386Z,89.50
2022-08-04T22:20:27.437Z,90.00
2022-08-04T22:24:30.227Z,90.20
2022-08-04T22:28:32.118Z,90.30
2022-08-04T22:32:34.642Z,91.10
2022-08-04T22:36:38.171Z,90.40
2022-08-04T22:40:40.383Z,90.50
2022-08-04T22:44:43.671Z,90.50
2022-08-04T22:48:45.616Z,90.30
2022-08-04T22:52:55.948Z,89.50
2022-08-04T22:56:58.371Z,90.20
2022-08-04T23:01:00.613Z,90.60
2022-08-04T23:05:02.520Z,90.90
2022-08-04T23:09:04.673Z,91.60
2022-08-04T23:13:06.824Z,92.00
2022-08-04T23:17:08.718Z,92.20
2022-08-04T23:21:11.429Z,92.30
2022-08-04T23:25:15.850Z,92.50
2022-08-04T23:29:18.805Z,92.90
2022-08-04T23:33:20.728Z,93.30
2022-08-04T23:37:25.403Z,93.60
2022-08-04T23:41:51.031Z,93.20
2022-08-04T23:46:07.700Z,93.10
2022-08-04T23:50:10.452Z,92.70
2022-08-04T23:54:12.406Z,92.80
2022-08-04T23:58:18.881Z,93.00
